| time (UTC) | temp C | wind direction | speed KPH | gust KPH | rain 1hr cm | rain 24hr cm | rain mn cm | humidity % | barometer mb |
| 20260508110003 | 10 | 80 | 3.2 | 8.0 | 0.00 | 0.00 | 0.00 | 89 | 1015.0 |
| 20260508105002 | 10 | 73 | 3.2 | 8.0 | 0.00 | 0.00 | 0.00 | 90 | 1015.0 |
| 20260508104002 | 10 | 90 | 3.2 | 6.4 | 0.00 | 0.00 | 0.00 | 90 | 1015.0 |
| 20260508103002 | 10 | 46 | 4.8 | 9.7 | 0.00 | 0.00 | 0.00 | 89 | 1014.0 |
| 20260508102002 | 10 | 90 | 3.2 | 8.0 | 0.00 | 0.00 | 0.00 | 89 | 1014.0 |
| 20260508101002 | 10 | 54 | 3.2 | 8.0 | 0.00 | 0.00 | 0.00 | 90 | 1014.0 |
| 20260508100002 | 10 | 59 | 4.8 | 8.0 | 0.00 | 0.00 | 0.00 | 90 | 1014.0 |
| 20260508095002 | 10 | 81 | 3.2 | 9.7 | 0.00 | 0.00 | 0.00 | 90 | 1014.0 |
| 20260508094002 | 10 | 36 | 3.2 | 8.0 | 0.00 | 0.00 | 0.00 | 90 | 1014.0 |
| 20260508093002 | 10 | 105 | 4.8 | 8.0 | 0.00 | 0.00 | 0.00 | 90 | 1014.0 |
| 20260508092002 | 10 | 105 | 4.8 | 8.0 | 0.00 | 0.00 | 0.00 | 90 | 1014.0 |
| 20260508091002 | 10 | 90 | 3.2 | 6.4 | 0.00 | 0.00 | 0.00 | 91 | 1014.0 |
| 20260508090003 | 10 | 90 | 3.2 | 8.0 | 0.00 | 0.00 | 0.00 | 91 | 1014.0 |
| 20260508085002 | 10 | 97 | 4.8 | 8.0 | 0.00 | 0.00 | 0.00 | 91 | 1014.0 |
| 20260508084002 | 10 | 114 | 4.8 | 12.9 | 0.00 | 0.00 | 0.00 | 91 | 1014.0 |
| 20260508083002 | 10 | 119 | 6.4 | 12.9 | 0.00 | 0.00 | 0.00 | 91 | 1014.0 |
| 20260508082004 | 10 | 116 | 6.4 | 12.9 | 0.00 | 0.00 | 0.00 | 91 | 1014.0 |
| 20260508081002 | 10 | 101 | 4.8 | 14.5 | 0.00 | 0.00 | 0.00 | 92 | 1014.0 |
| 20260508080002 | 9 | 105 | 4.8 | 9.7 | 0.00 | 0.00 | 0.00 | 92 | 1014.0 |
| 20260508075003 | 9 | 108 | 4.8 | 8.0 | 0.00 | 0.00 | 0.00 | 92 | 1014.0 |
| 20260508074007 | 9 | 109 | 4.8 | 11.3 | 0.00 | 0.00 | 0.00 | 92 | 1014.0 |
| 20260508073004 | 9 | 104 | 3.2 | 9.7 | 0.00 | 0.00 | 0.00 | 92 | 1014.0 |
| 20260508072003 | 9 | 90 | 3.2 | 8.0 | 0.00 | 0.00 | 0.00 | 92 | 1014.0 |
| 20260508071003 | 9 | 110 | 6.4 | 14.5 | 0.00 | 0.00 | 0.00 | 91 | 1014.0 |
| 20260508070003 | 9 | 116 | 6.4 | 12.9 | 0.00 | 0.00 | 0.00 | 91 | 1013.0 |
| 20260508065004 | 9 | 100 | 3.2 | 9.7 | 0.00 | 0.00 | 0.00 | 91 | 1013.0 |
| 20260508064002 | 9 | 112 | 4.8 | 11.3 | 0.00 | 0.00 | 0.00 | 91 | 1013.0 |
| 20260508063003 | 9 | 98 | 4.8 | 12.9 | 0.00 | 0.00 | 0.00 | 91 | 1013.0 |
| 20260508062003 | 9 | 118 | 6.4 | 12.9 | 0.00 | 0.00 | 0.00 | 90 | 1013.0 |
| 20260508061005 | 9 | 90 | 3.2 | 8.0 | 0.00 | 0.00 | 0.00 | 91 | 1013.0 |
| 20260508060012 | 9 | 97 | 4.8 | 9.7 | 0.00 | 0.00 | 0.00 | 90 | 1013.0 |
| 20260508055004 | 9 | 90 | 4.8 | 9.7 | 0.00 | 0.00 | 0.00 | 90 | 1013.0 |
| 20260508054010 | 9 | 90 | 4.8 | 12.9 | 0.00 | 0.00 | 0.00 | 90 | 1013.0 |
| 20260508053003 | 9 | 109 | 6.4 | 14.5 | 0.00 | 0.00 | 0.00 | 90 | 1013.0 |
| 20260508052010 | 9 | 90 | 4.8 | 9.7 | 0.00 | 0.00 | 0.00 | 90 | 1013.0 |
| 20260508051003 | 9 | 112 | 4.8 | 14.5 | 0.00 | 0.00 | 0.00 | 90 | 1013.0 |
| 20260508050003 | 9 | 117 | 6.4 | 12.9 | 0.00 | 0.00 | 0.00 | 90 | 1013.0 |
| 20260508045005 | 9 | 98 | 4.8 | 11.3 | 0.00 | 0.00 | 0.00 | 90 | 1013.0 |
| 20260508044005 | 9 | 123 | 6.4 | 14.5 | 0.00 | 0.00 | 0.00 | 90 | 1013.0 |
| 20260508043003 | 9 | 74 | 3.2 | 9.7 | 0.00 | 0.00 | 0.00 | 89 | 1013.0 |
| 20260508042009 | 9 | 117 | 6.4 | 12.9 | 0.00 | 0.00 | 0.00 | 89 | 1013.0 |
| 20260508041005 | 9 | 109 | 4.8 | 11.3 | 0.00 | 0.00 | 0.00 | 89 | 1013.0 |
| 20260508040007 | 9 | 112 | 3.2 | 9.7 | 0.00 | 0.00 | 0.00 | 89 | 1013.0 |
| 20260508035004 | 9 | 102 | 3.2 | 8.0 | 0.00 | 0.00 | 0.00 | 89 | 1013.0 |
| 20260508034006 | 9 | 95 | 4.8 | 12.9 | 0.00 | 0.00 | 0.00 | 89 | 1013.0 |
| 20260508033003 | 9 | 103 | 4.8 | 11.3 | 0.00 | 0.00 | 0.00 | 89 | 1012.0 |
| 20260508032003 | 9 | 124 | 8.0 | 14.5 | 0.00 | 0.00 | 0.00 | 89 | 1012.0 |
| 20260508031003 | 10 | 125 | 8.0 | 16.1 | 0.00 | 0.00 | 0.00 | 88 | 1012.0 |
| 20260508030004 | 10 | 86 | 6.4 | 12.9 | 0.00 | 0.00 | 0.00 | 88 | 1012.0 |
| 20260508025003 | 9 | 102 | 6.4 | 14.5 | 0.00 | 0.00 | 0.00 | 88 | 1012.0 |
| 20260508024002 | 9 | 120 | 6.4 | 12.9 | 0.00 | 0.00 | 0.00 | 88 | 1012.0 |
| 20260508023002 | 9 | 100 | 4.8 | 9.7 | 0.00 | 0.00 | 0.00 | 88 | 1012.0 |
| 20260508022002 | 9 | 118 | 6.4 | 14.5 | 0.00 | 0.00 | 0.00 | 88 | 1012.0 |
| 20260508021002 | 9 | 107 | 4.8 | 9.7 | 0.00 | 0.00 | 0.00 | 88 | 1012.0 |
| 20260508020002 | 9 | 113 | 6.4 | 9.7 | 0.00 | 0.00 | 0.00 | 87 | 1012.0 |
| 20260508015002 | 9 | 113 | 6.4 | 9.7 | 0.00 | 0.00 | 0.00 | 87 | 1012.0 |
| 20260508014002 | 9 | 118 | 6.4 | 14.5 | 0.00 | 0.00 | 0.00 | 87 | 1012.0 |
| 20260508013002 | 10 | 108 | 6.4 | 11.3 | 0.00 | 0.00 | 0.00 | 87 | 1012.0 |
| 20260508012002 | 10 | 118 | 4.8 | 9.7 | 0.00 | 0.00 | 0.00 | 86 | 1012.0 |
| 20260508011001 | 10 | 122 | 6.4 | 14.5 | 0.00 | 0.00 | 0.00 | 86 | 1012.0 |
| 20260508010002 | 10 | 118 | 6.4 | 14.5 | 0.00 | 0.00 | 0.00 | 86 | 1012.0 |
| 20260508005002 | 10 | 102 | 6.4 | 12.9 | 0.00 | 0.00 | 0.00 | 86 | 1012.0 |
| 20260508004002 | 10 | 114 | 6.4 | 9.7 | 0.00 | 0.00 | 0.00 | 86 | 1012.0 |
| 20260508003002 | 10 | 99 | 4.8 | 9.7 | 0.00 | 0.00 | 0.00 | 86 | 1012.0 |
| 20260508002003 | 10 | 115 | 4.8 | 9.7 | 0.00 | 0.00 | 0.00 | 86 | 1012.0 |
| 20260508001002 | 10 | 112 | 4.8 | 9.7 | 0.00 | 0.00 | 0.00 | 86 | 1012.0 |
| 20260508000002 | 10 | 107 | 3.2 | 8.0 | 0.00 | 0.00 | 0.00 | 86 | 1012.0 |
| 20260507235002 | 10 | 119 | 6.4 | 12.9 | 0.00 | 0.00 | 0.00 | 86 | 1012.0 |
| 20260507234002 | 10 | 101 | 4.8 | 8.0 | 0.00 | 0.00 | 0.00 | 86 | 1012.0 |
| 20260507233002 | 10 | 110 | 4.8 | 8.0 | 0.00 | 0.00 | 0.00 | 85 | 1012.0 |
| 20260507232002 | 10 | 111 | 6.4 | 12.9 | 0.00 | 0.00 | 0.00 | 85 | 1012.0 |
| 20260507231002 | 10 | 115 | 8.0 | 14.5 | 0.00 | 0.00 | 0.00 | 85 | 1012.0 |
| 20260507230002 | 10 | 120 | 8.0 | 14.5 | 0.00 | 0.00 | 0.00 | 85 | 1012.0 |
| 20260507225002 | 10 | 117 | 4.8 | 9.7 | 0.00 | 0.00 | 0.00 | 85 | 1012.0 |
| 20260507224002 | 10 | 125 | 8.0 | 14.5 | 0.00 | 0.00 | 0.00 | 84 | 1012.0 |
| 20260507223003 | 10 | 100 | 4.8 | 11.3 | 0.00 | 0.00 | 0.00 | 84 | 1012.0 |
| 20260507222003 | 10 | 117 | 6.4 | 11.3 | 0.00 | 0.00 | 0.00 | 84 | 1012.0 |
| 20260507221004 | 10 | 121 | 8.0 | 16.1 | 0.00 | 0.00 | 0.00 | 85 | 1012.0 |
| 20260507220002 | 10 | 113 | 8.0 | 14.5 | 0.00 | 0.00 | 0.00 | 84 | 1012.0 |
| 20260507215002 | 10 | 114 | 6.4 | 12.9 | 0.00 | 0.00 | 0.00 | 84 | 1012.0 |
| 20260507214001 | 10 | 104 | 8.0 | 17.7 | 0.00 | 0.00 | 0.00 | 84 | 1012.0 |
| 20260507213002 | 10 | 114 | 6.4 | 14.5 | 0.00 | 0.00 | 0.00 | 83 | 1012.0 |
| 20260507212002 | 10 | 123 | 9.7 | 16.1 | 0.00 | 0.00 | 0.00 | 83 | 1012.0 |
| 20260507211003 | 11 | 100 | 4.8 | 9.7 | 0.00 | 0.00 | 0.00 | 83 | 1012.0 |
| 20260507210003 | 11 | 118 | 8.0 | 12.9 | 0.00 | 0.00 | 0.00 | 83 | 1012.0 |
| 20260507205003 | 11 | 118 | 6.4 | 14.5 | 0.00 | 0.00 | 0.00 | 83 | 1012.0 |
| 20260507204002 | 11 | 112 | 6.4 | 14.5 | 0.00 | 0.00 | 0.00 | 83 | 1012.0 |
| 20260507203002 | 11 | 108 | 6.4 | 11.3 | 0.00 | 0.00 | 0.00 | 83 | 1012.0 |
| 20260507202002 | 11 | 90 | 4.8 | 9.7 | 0.00 | 0.00 | 0.00 | 83 | 1012.0 |
| 20260507201002 | 11 | 77 | 6.4 | 14.5 | 0.00 | 0.00 | 0.00 | 83 | 1012.0 |
| 20260507200002 | 11 | 90 | 6.4 | 14.5 | 0.00 | 0.00 | 0.00 | 84 | 1012.0 |
| 20260507195002 | 11 | 113 | 4.8 | 9.7 | 0.00 | 0.00 | 0.00 | 83 | 1012.0 |
| 20260507194002 | 11 | 127 | 8.0 | 12.9 | 0.00 | 0.00 | 0.00 | 83 | 1012.0 |
| 20260507193002 | 11 | 120 | 6.4 | 12.9 | 0.00 | 0.00 | 0.00 | 84 | 1012.0 |
| 20260507192002 | 11 | 118 | 6.4 | 11.3 | 0.00 | 0.00 | 0.00 | 84 | 1012.0 |
| 20260507191002 | 11 | 110 | 6.4 | 12.9 | 0.00 | 0.00 | 0.00 | 84 | 1012.0 |
| 20260507190004 | 11 | 111 | 6.4 | 14.5 | 0.00 | 0.00 | 0.00 | 84 | 1011.0 |
| 20260507185002 | 11 | 112 | 8.0 | 14.5 | 0.00 | 0.00 | 0.00 | 84 | 1011.0 |
| 20260507184002 | 11 | 112 | 8.0 | 17.7 | 0.00 | 0.00 | 0.00 | 84 | 1011.0 |
| 20260507183002 | 11 | 117 | 8.0 | 14.5 | 0.00 | 0.00 | 0.00 | 83 | 1011.0 |
| 20260507182002 | 11 | 125 | 9.7 | 17.7 | 0.00 | 0.00 | 0.00 | 83 | 1011.0 |
| 20260507181003 | 11 | 113 | 8.0 | 19.3 | 0.00 | 0.00 | 0.00 | 83 | 1011.0 |
| 20260507180002 | 12 | 111 | 6.4 | 14.5 | 0.00 | 0.00 | 0.00 | 83 | 1011.0 |
| 20260507175002 | 12 | 112 | 8.0 | 17.7 | 0.00 | 0.00 | 0.00 | 82 | 1011.0 |
| 20260507174002 | 12 | 108 | 6.4 | 14.5 | 0.00 | 0.00 | 0.00 | 81 | 1010.0 |
| 20260507173002 | 12 | 90 | 4.8 | 12.9 | 0.00 | 0.00 | 0.00 | 81 | 1010.0 |
| 20260507172002 | 12 | 115 | 8.0 | 17.7 | 0.00 | 0.00 | 0.00 | 80 | 1010.0 |
| 20260507171002 | 12 | 94 | 8.0 | 16.1 | 0.00 | 0.00 | 0.00 | 80 | 1010.0 |
| 20260507170002 | 13 | 53 | 4.8 | 11.3 | 0.00 | 0.00 | 0.00 | 79 | 1010.0 |
| 20260507165004 | 13 | 102 | 8.0 | 19.3 | 0.00 | 0.00 | 0.00 | 78 | 1010.0 |
| 20260507164002 | 13 | 90 | 4.8 | 17.7 | 0.00 | 0.00 | 0.00 | 78 | 1010.0 |
| 20260507163002 | 13 | 96 | 6.4 | 16.1 | 0.00 | 0.00 | 0.00 | 77 | 1010.0 |
| 20260507162002 | 14 | 107 | 6.4 | 16.1 | 0.00 | 0.00 | 0.00 | 76 | 1010.0 |
| 20260507161002 | 14 | 36 | 4.8 | 12.9 | 0.00 | 0.00 | 0.00 | 76 | 1010.0 |
| 20260507160002 | 15 | 43 | 6.4 | 14.5 | 0.00 | 0.00 | 0.00 | 75 | 1010.0 |
| 20260507155003 | 15 | 50 | 4.8 | 14.5 | 0.00 | 0.00 | 0.00 | 74 | 1009.0 |
| 20260507154002 | 15 | 18 | 6.4 | 12.9 | 0.00 | 0.00 | 0.00 | 73 | 1009.0 |
| 20260507153004 | 16 | 75 | 4.8 | 12.9 | 0.00 | 0.00 | 0.00 | 72 | 1009.0 |
| 20260507152002 | 16 | 98 | 6.4 | 14.5 | 0.00 | 0.00 | 0.00 | 72 | 1009.0 |
| 20260507151003 | 16 | 90 | 6.4 | 17.7 | 0.00 | 0.00 | 0.00 | 72 | 1009.0 |
| 20260507150002 | 16 | 39 | 4.8 | 12.9 | 0.00 | 0.00 | 0.00 | 72 | 1009.0 |
| 20260507145002 | 16 | 90 | 4.8 | 12.9 | 0.00 | 0.00 | 0.00 | 71 | 1009.0 |
| 20260507144001 | 17 | 73 | 4.8 | 11.3 | 0.00 | 0.00 | 0.00 | 70 | 1009.0 |
| 20260507143002 | 17 | 35 | 4.8 | 16.1 | 0.00 | 0.00 | 0.00 | 69 | 1009.0 |
| 20260507142002 | 18 | 39 | 4.8 | 16.1 | 0.00 | 0.00 | 0.00 | 68 | 1009.0 |
| 20260507141002 | 18 | 72 | 4.8 | 12.9 | 0.00 | 0.00 | 0.00 | 68 | 1009.0 |
| 20260507140002 | 19 | 50 | 4.8 | 14.5 | 0.00 | 0.00 | 0.00 | 67 | 1009.0 |
| 20260507135002 | 19 | 60 | 4.8 | 11.3 | 0.00 | 0.00 | 0.00 | 66 | 1008.0 |
| 20260507134002 | 20 | 30 | 6.4 | 14.5 | 0.00 | 0.00 | 0.00 | 66 | 1008.0 |
| 20260507133002 | 20 | 35 | 4.8 | 12.9 | 0.00 | 0.00 | 0.00 | 65 | 1008.0 |
| 20260507132003 | 20 | 83 | 6.4 | 12.9 | 0.00 | 0.00 | 0.00 | 63 | 1008.0 |
| 20260507131002 | 20 | 76 | 6.4 | 14.5 | 0.00 | 0.00 | 0.00 | 63 | 1008.0 |
| 20260507130002 | 20 | 90 | 6.4 | 12.9 | 0.00 | 0.00 | 0.00 | 64 | 1008.0 |
| 20260507125002 | 20 | 65 | 6.4 | 14.5 | 0.00 | 0.00 | 0.00 | 63 | 1008.0 |
| 20260507124002 | 20 | 67 | 4.8 | 16.1 | 0.00 | 0.00 | 0.00 | 63 | 1008.0 |
| 20260507123003 | 21 | 46 | 6.4 | 12.9 | 0.00 | 0.00 | 0.00 | 63 | 1008.0 |
| 20260507122003 | 21 | 346 | 4.8 | 9.7 | 0.00 | 0.00 | 0.00 | 64 | 1008.0 |
| 20260507121002 | 21 | 84 | 4.8 | 11.3 | 0.00 | 0.00 | 0.00 | 64 | 1008.0 |
| 20260507120005 | 21 | 42 | 4.8 | 9.7 | 0.00 | 0.00 | 0.00 | 64 | 1008.0 |
| 20260507115002 | 21 | 90 | 4.8 | 11.3 | 0.00 | 0.00 | 0.00 | 64 | 1007.0 |
| 20260507114002 | 21 | 61 | 6.4 | 14.5 | 0.00 | 0.00 | 0.00 | 64 | 1007.0 |
| 20260507113002 | 21 | 83 | 6.4 | 16.1 | 0.00 | 0.00 | 0.00 | 64 | 1007.0 |
| 20260507112002 | 21 | 55 | 4.8 | 11.3 | 0.00 | 0.00 | 0.00 | 64 | 1007.0 |
| 20260507111003 | 21 | 73 | 4.8 | 16.1 | 0.00 | 0.00 | 0.00 | 64 | 1007.0 |